General Aviation Weather

Text Reports

Enter one or more of the following location identifiers separated by a space:

Zip Code, Four-Character ICAO or Three-Character IATA airport codes.

METAR - Aviation Routine Weather Report
K0F2 - Bowie, Texas
Updated at 9:55 PM GMT on May 03, 2015 (4:55 PM CDT):
METAR K0F2 032155Z AUTO 15011G17KT 10SM CLR 26/14 A2993 RMK AO2 T02620138
TAF - Terminal Area Forecast
K0F2 - Bowie, Texas
Updated at 9:55 PM GMT on May 03, 2015 (4:55 PM CDT):
No TAF is currently available for this location.
Decoded:
No decoded TAF is available.
PIREP - Pilot Weather Report
K0F2 - Bowie, Texas
Updated at 9:55 PM GMT on May 03, 2015 (4:55 PM CDT):
No PIREP is currently available for this location.
AIRMET - Airmens Meteorological Information
K0F2 - Bowie, Texas
Updated at 9:55 PM GMT on May 03, 2015 (4:55 PM CDT):
No AIRMET is currently available for this location.
SIGMET - Significant Meteorological Information
K0F2 - Bowie, Texas
Updated at 9:55 PM GMT on May 03, 2015 (4:55 PM CDT):
No SIGMET is currently available for this location.
NOTAM - Notice to Airmen
K0F2 - Bowie, Texas
Updated at 9:55 PM GMT on May 03, 2015 (4:55 PM CDT):
No NOTAM is currently available for this location.
Forecast Area
K0F2 - Bowie, Texas
Updated at 9:55 PM GMT on May 03, 2015 (4:55 PM CDT):
No NOTAM is currently available for this location.
Aviation Weather Maps